Time;durP1;ratioP1;P1;durP2;ratioP2;P2;SDS_P1;SDS_P2;PMS_P1;PMS_P2;Temp;Humidity;BMP_temperature;BMP_pressure;BME280_temperature;BME280_humidity;BME280_pressure;Samples;Min_cycle;Max_cycle;Signal;HPM_P1;HPM_P2
2022/05/18 00:00:54;;;;;;;15.98;11.50;;;21.10;64.30;;;;;;5012412;28;20040;-88
2022/05/18 00:03:27;;;;;;;17.92;11.88;;;21.10;64.10;;;;;;5017514;28;20046;-88
2022/05/18 00:05:53;;;;;;;20.30;12.32;;;21.10;64.20;;;;;;5019054;28;20034;-86
2022/05/18 00:08:19;;;;;;;11.35;5.88;;;21.00;64.30;;;;;;5020917;28;20068;-89
2022/05/18 00:10:47;;;;;;;11.05;5.78;;;21.10;59.20;;;;;;5037600;28;20072;-85
2022/05/18 00:13:13;;;;;;;9.48;3.60;;;21.20;57.60;;;;;;5029298;28;20144;-88
2022/05/18 00:15:39;;;;;;;9.23;3.38;;;21.30;57.90;;;;;;5036955;28;20026;-88
2022/05/18 00:18:05;;;;;;;9.32;2.78;;;21.40;58.80;;;;;;5023212;28;20041;-87
2022/05/18 00:20:32;;;;;;;9.75;2.90;;;21.40;60.30;;;;;;5029493;28;20086;-87
2022/05/18 00:23:01;;;;;;;7.93;2.97;;;21.50;62.20;;;;;;5024881;28;20477;-88
2022/05/18 00:25:44;;;;;;;7.95;2.70;;;21.40;63.60;;;;;;5029180;28;20045;-87
2022/05/18 00:28:10;;;;;;;8.67;3.07;;;21.40;66.00;;;;;;5028809;28;20048;-87
2022/05/18 00:30:38;;;;;;;7.72;2.75;;;21.20;68.40;;;;;;5024895;28;20041;-86
2022/05/18 00:33:05;;;;;;;7.05;2.80;;;21.10;70.00;;;;;;5019330;28;20030;-86
2022/05/18 00:35:34;;;;;;;7.22;2.92;;;21.00;70.70;;;;;;5018263;28;20094;-85
2022/05/18 00:38:00;;;;;;;6.45;2.50;;;20.80;71.80;;;;;;5016515;28;20485;-84
2022/05/18 00:40:26;;;;;;;6.75;2.78;;;20.60;72.80;;;;;;5009030;28;20100;-85
2022/05/18 00:42:52;;;;;;;8.10;2.88;;;20.50;73.90;;;;;;5014536;28;20473;-83
2022/05/18 00:45:19;;;;;;;8.65;2.80;;;20.50;74.70;;;;;;5021470;28;20045;-85
2022/05/18 00:47:45;;;;;;;5.93;2.60;;;20.50;76.10;;;;;;5020179;28;20133;-85
2022/05/18 00:50:18;;;;;;;6.78;2.53;;;20.40;76.20;;;;;;5037950;28;20096;-86
2022/05/18 00:52:51;;;;;;;7.78;2.47;;;20.40;76.60;;;;;;5048042;28;20040;-87
2022/05/18 00:55:21;;;;;;;5.47;2.45;;;20.30;77.10;;;;;;5021130;28;20030;-86
2022/05/18 00:58:22;;;;;;;5.20;2.53;;;20.40;78.20;;;;;;5028672;28;20044;-87
2022/05/18 01:00:50;;;;;;;6.00;2.60;;;20.40;78.10;;;;;;5011284;28;20034;-87
2022/05/18 01:03:46;;;;;;;7.60;3.00;;;20.40;78.70;;;;;;5027168;28;20047;-87
2022/05/18 01:06:37;;;;;;;6.13;2.63;;;20.30;78.90;;;;;;5039305;28;20469;-86
2022/05/18 01:09:04;;;;;;;5.18;2.80;;;20.30;79.20;;;;;;5017825;28;20029;-86
2022/05/18 01:11:35;;;;;;;7.40;2.60;;;20.30;79.40;;;;;;5027519;28;20052;-87
2022/05/18 01:14:02;;;;;;;5.10;2.90;;;20.30;79.20;;;;;;5040766;28;20026;-86
2022/05/18 01:16:28;;;;;;;6.43;2.97;;;20.30;79.70;;;;;;5044467;28;20043;-87
2022/05/18 01:18:56;;;;;;;4.07;2.33;;;20.30;79.30;;;;;;5041033;28;20041;-87
2022/05/18 01:21:34;;;;;;;5.57;2.05;;;20.20;79.00;;;;;;5067861;28;20033;-88
2022/05/18 01:24:14;;;;;;;4.88;2.38;;;20.20;79.00;;;;;;5039441;28;20041;-89
2022/05/18 01:26:46;;;;;;;5.25;2.25;;;20.30;79.10;;;;;;5039442;28;20171;-89
2022/05/18 01:29:13;;;;;;;5.65;2.30;;;20.20;79.50;;;;;;5050547;28;20033;-90
2022/05/18 01:31:46;;;;;;;4.72;2.35;;;20.30;79.70;;;;;;5037140;28;20129;-89
2022/05/18 01:34:12;;;;;;;5.05;2.20;;;20.20;80.00;;;;;;5046227;28;20030;-89
2022/05/18 01:36:38;;;;;;;4.68;2.40;;;20.20;80.10;;;;;;5033140;28;20045;-88
2022/05/18 01:39:05;;;;;;;5.18;2.38;;;20.20;80.20;;;;;;5028519;28;20045;-87
2022/05/18 01:41:37;;;;;;;4.28;2.30;;;20.20;80.30;;;;;;5029982;28;20046;-87
2022/05/18 01:44:04;;;;;;;6.68;2.35;;;20.20;80.40;;;;;;5028897;28;20240;-88
2022/05/18 01:46:31;;;;;;;5.40;2.47;;;20.20;80.70;;;;;;5030609;28;20523;-88
2022/05/18 01:48:57;;;;;;;5.90;2.40;;;20.20;81.00;;;;;;5035319;28;20378;-88
2022/05/18 01:51:38;;;;;;;7.13;2.83;;;20.20;81.20;;;;;;5028171;28;20149;-88
2022/05/18 01:54:04;;;;;;;5.60;2.70;;;20.20;81.30;;;;;;5028843;28;20037;-89
2022/05/18 01:56:30;;;;;;;6.57;2.65;;;20.20;81.40;;;;;;5032658;28;20029;-88
2022/05/18 01:58:55;;;;;;;6.38;2.53;;;20.20;81.50;;;;;;5018901;28;20905;-86
2022/05/18 02:01:21;;;;;;;5.45;2.70;;;20.20;81.60;;;;;;5020943;28;20046;-87
2022/05/18 02:03:48;;;;;;;5.88;2.60;;;20.20;81.50;;;;;;5014063;28;20120;-86
2022/05/18 02:06:15;;;;;;;9.57;3.20;;;20.20;81.60;;;;;;5024088;28;20068;-86
2022/05/18 02:08:42;;;;;;;6.00;3.10;;;20.10;81.60;;;;;;5017186;28;20141;-87
2022/05/18 02:11:12;;;;;;;6.22;2.95;;;20.10;81.70;;;;;;5016924;28;20036;-88
2022/05/18 02:13:38;;;;;;;9.05;3.30;;;20.10;81.60;;;;;;5046195;28;20473;-90
2022/05/18 02:16:04;;;;;;;6.82;3.28;;;20.10;81.40;;;;;;5031832;28;20045;-88
2022/05/18 02:18:30;;;;;;;7.20;3.53;;;20.10;81.10;;;;;;5017954;28;20052;-87
2022/05/18 02:20:55;;;;;;;6.93;3.50;;;20.10;81.40;;;;;;5028325;28;20041;-88
2022/05/18 02:23:21;;;;;;;7.20;3.42;;;20.10;81.70;;;;;;5016746;28;20073;-87
2022/05/18 02:25:47;;;;;;;6.05;3.20;;;20.10;81.50;;;;;;5026484;28;20040;-87
2022/05/18 02:28:12;;;;;;;6.93;3.38;;;20.00;81.50;;;;;;5022769;28;20038;-88
2022/05/18 02:30:38;;;;;;;5.57;2.78;;;20.00;81.60;;;;;;5026321;28;20107;-87
2022/05/18 02:33:04;;;;;;;7.30;3.28;;;20.00;81.70;;;;;;5032634;28;20034;-88
2022/05/18 02:35:30;;;;;;;7.53;3.40;;;20.00;81.70;;;;;;5035786;28;20032;-87
2022/05/18 02:37:56;;;;;;;7.93;3.10;;;20.00;81.80;;;;;;5020924;28;20037;-86
2022/05/18 02:40:22;;;;;;;6.70;3.85;;;20.00;81.90;;;;;;5029094;28;20045;-87
2022/05/18 02:42:47;;;;;;;6.63;3.50;;;19.90;81.90;;;;;;5028221;28;20055;-87
2022/05/18 02:45:13;;;;;;;5.97;3.38;;;19.90;82.00;;;;;;5023906;28;20029;-88
2022/05/18 02:47:39;;;;;;;6.97;4.10;;;19.90;82.00;;;;;;5020840;28;20122;-88
2022/05/18 02:50:06;;;;;;;7.35;3.97;;;19.90;82.10;;;;;;5028857;28;20500;-87
2022/05/18 02:52:31;;;;;;;10.15;4.80;;;19.90;82.00;;;;;;5033762;28;20042;-88
2022/05/18 02:57:41;;;;;;;8.43;4.50;;;19.90;82.00;;;;;;5017017;28;20049;-88
2022/05/18 03:00:08;;;;;;;7.65;4.30;;;19.90;81.60;;;;;;5027658;28;20408;-88
2022/05/18 03:02:34;;;;;;;8.48;4.63;;;19.90;81.60;;;;;;5028081;28;20040;-89
2022/05/18 03:05:00;;;;;;;9.32;4.57;;;19.90;81.80;;;;;;5029333;28;20025;-88
2022/05/18 03:07:26;;;;;;;9.32;5.43;;;19.90;81.70;;;;;;5017697;28;20033;-87
2022/05/18 03:09:52;;;;;;;9.10;5.07;;;19.80;81.70;;;;;;5032818;28;20170;-88
2022/05/18 03:12:17;;;;;;;9.60;5.05;;;19.70;82.10;;;;;;5029779;28;20104;-88
2022/05/18 03:14:43;;;;;;;9.05;4.70;;;19.70;82.20;;;;;;5042067;28;20044;-88
2022/05/18 03:17:09;;;;;;;8.85;5.28;;;19.70;82.30;;;;;;5033714;28;20049;-89
2022/05/18 03:19:34;;;;;;;10.75;5.85;;;19.60;82.50;;;;;;5027597;28;20069;-88
2022/05/18 03:24:44;;;;;;;9.70;5.85;;;19.70;82.60;;;;;;5020913;28;20068;-88
2022/05/18 03:27:10;;;;;;;10.55;6.07;;;19.70;82.30;;;;;;5016658;28;20037;-88
2022/05/18 03:29:36;;;;;;;11.05;5.78;;;19.60;82.40;;;;;;5014947;28;20072;-88
2022/05/18 03:32:03;;;;;;;11.00;6.70;;;19.60;82.50;;;;;;5034432;28;20093;-86
2022/05/18 03:34:28;;;;;;;10.70;7.22;;;19.50;82.80;;;;;;5039717;28;20042;-88
2022/05/18 03:36:54;;;;;;;13.55;6.90;;;19.50;83.00;;;;;;5037320;28;20059;-88
2022/05/18 03:39:20;;;;;;;11.73;7.50;;;19.50;82.80;;;;;;5035428;28;20156;-89
2022/05/18 03:41:45;;;;;;;12.15;7.07;;;19.40;83.00;;;;;;5038724;28;20026;-89
2022/05/18 03:44:11;;;;;;;13.77;7.30;;;19.30;83.10;;;;;;5038803;28;20473;-87
2022/05/18 03:46:37;;;;;;;12.30;7.35;;;19.20;83.20;;;;;;5035352;28;20041;-87
2022/05/18 03:49:04;;;;;;;12.73;7.35;;;19.10;83.10;;;;;;5027934;28;20032;-86
2022/05/18 03:51:30;;;;;;;12.05;7.20;;;19.10;83.10;;;;;;5028873;28;20037;-89
2022/05/18 03:53:56;;;;;;;11.48;7.28;;;19.00;83.10;;;;;;5025445;28;20052;-86
2022/05/18 03:56:24;;;;;;;14.10;7.60;;;19.00;83.20;;;;;;5013799;28;20034;-87
2022/05/18 03:58:50;;;;;;;12.50;6.75;;;19.00;83.10;;;;;;5029064;28;20056;-87
2022/05/18 04:01:16;;;;;;;12.80;6.68;;;19.00;83.10;;;;;;5034806;28;20029;-87
2022/05/18 04:03:44;;;;;;;12.90;7.57;;;19.00;83.20;;;;;;5027124;28;20030;-88
2022/05/18 04:06:11;;;;;;;12.77;7.18;;;18.90;83.20;;;;;;5029455;28;20097;-87
2022/05/18 04:08:37;;;;;;;10.60;6.82;;;18.90;83.20;;;;;;5031384;28;20037;-88
2022/05/18 04:11:03;;;;;;;13.73;8.00;;;18.90;83.20;;;;;;5033373;28;20037;-86
2022/05/18 04:13:29;;;;;;;11.82;7.18;;;18.90;83.20;;;;;;5028242;28;20080;-87
2022/05/18 04:15:55;;;;;;;14.20;7.68;;;18.90;83.20;;;;;;5022322;28;20119;-88
2022/05/18 04:18:22;;;;;;;14.18;7.82;;;18.90;83.20;;;;;;5022057;28;20151;-88
2022/05/18 04:20:49;;;;;;;16.60;8.13;;;18.80;83.20;;;;;;5021381;28;20409;-87
2022/05/18 04:23:14;;;;;;;13.05;7.55;;;18.80;83.00;;;;;;5014288;28;20038;-86
2022/05/18 04:25:41;;;;;;;12.27;7.90;;;18.80;83.10;;;;;;5020019;28;20026;-89
2022/05/18 04:28:07;;;;;;;11.63;7.57;;;18.80;82.90;;;;;;5018229;28;20038;-88
2022/05/18 04:30:34;;;;;;;12.95;7.88;;;18.80;82.90;;;;;;5024176;28;20072;-89
2022/05/18 04:33:01;;;;;;;15.38;8.10;;;18.80;82.90;;;;;;5023527;28;20755;-88
2022/05/18 04:35:29;;;;;;;10.80;7.32;;;18.80;82.70;;;;;;5028010;28;20037;-88
2022/05/18 04:37:55;;;;;;;12.15;7.07;;;18.70;82.60;;;;;;5022615;28;20041;-89
2022/05/18 04:40:22;;;;;;;12.95;7.30;;;18.70;82.40;;;;;;5020699;28;23029;-86
2022/05/18 04:42:47;;;;;;;14.07;7.95;;;18.60;82.10;;;;;;5025512;28;20060;-88
2022/05/18 04:45:15;;;;;;;13.35;7.22;;;18.60;82.20;;;;;;5019692;28;20242;-87
2022/05/18 04:47:41;;;;;;;13.20;6.78;;;18.60;82.10;;;;;;5023046;28;20250;-89
2022/05/18 04:50:09;;;;;;;12.32;7.10;;;18.70;81.40;;;;;;5021511;28;20802;-88
2022/05/18 04:52:34;;;;;;;11.63;6.78;;;18.70;80.50;;;;;;5038657;28;20041;-87
2022/05/18 04:55:00;;;;;;;13.25;6.82;;;18.60;80.90;;;;;;5023141;28;20036;-87
2022/05/18 04:57:26;;;;;;;10.82;7.20;;;18.60;80.80;;;;;;5035401;28;20021;-90
2022/05/18 04:59:52;;;;;;;12.23;7.05;;;18.60;80.20;;;;;;5038035;28;20100;-87
2022/05/18 05:02:18;;;;;;;15.15;6.88;;;18.60;79.80;;;;;;5022700;28;20092;-87
2022/05/18 05:04:44;;;;;;;14.02;7.35;;;18.70;79.80;;;;;;5042210;28;20041;-86
2022/05/18 05:07:11;;;;;;;15.90;7.00;;;18.70;79.60;;;;;;5019097;28;20029;-86
2022/05/18 05:09:37;;;;;;;13.05;6.82;;;18.70;79.30;;;;;;5025141;28;20033;-88
2022/05/18 05:12:04;;;;;;;13.30;7.47;;;18.70;79.20;;;;;;5021329;28;20914;-88
2022/05/18 05:14:30;;;;;;;13.38;7.75;;;18.90;79.20;;;;;;5018785;28;20069;-87
2022/05/18 05:16:56;;;;;;;16.65;7.63;;;18.80;79.20;;;;;;5019443;28;20029;-86
2022/05/18 05:19:22;;;;;;;12.68;6.78;;;19.40;77.10;;;;;;5014335;28;20052;-87
2022/05/18 05:21:47;;;;;;;12.30;6.43;;;20.20;74.50;;;;;;5019546;28;20106;-87
2022/05/18 05:24:15;;;;;;;11.63;6.00;;;21.30;71.70;;;;;;5026206;28;20052;-86
2022/05/18 05:26:42;;;;;;;10.98;5.72;;;22.00;68.30;;;;;;5019926;28;20042;-87
2022/05/18 05:29:08;;;;;;;12.20;5.65;;;22.50;66.70;;;;;;5026708;28;20038;-86
2022/05/18 05:31:34;;;;;;;9.95;5.38;;;22.90;64.40;;;;;;5020259;28;20046;-90
2022/05/18 05:34:00;;;;;;;10.85;5.28;;;23.40;63.40;;;;;;5009862;28;20038;-86
2022/05/18 05:36:26;;;;;;;11.55;5.47;;;23.80;61.20;;;;;;5021650;28;20412;-87
2022/05/18 05:38:52;;;;;;;10.00;5.20;;;23.50;61.50;;;;;;5041625;28;20079;-88
2022/05/18 05:41:18;;;;;;;10.55;5.30;;;22.90;62.80;;;;;;5039917;28;20151;-91
2022/05/18 05:43:44;;;;;;;12.32;5.40;;;22.40;62.40;;;;;;5040146;28;20519;-87
2022/05/18 05:46:15;;;;;;;9.85;5.00;;;22.10;64.90;;;;;;5031049;28;20041;-86
2022/05/18 05:48:43;;;;;;;10.50;6.15;;;22.60;63.10;;;;;;5019964;28;20041;-87
2022/05/18 05:51:13;;;;;;;15.18;5.55;;;22.60;62.50;;;;;;5031435;28;20137;-88
2022/05/18 05:53:43;;;;;;;11.77;6.13;;;22.60;62.20;;;;;;5025987;28;20084;-86
2022/05/18 05:56:12;;;;;;;13.23;5.50;;;22.10;62.70;;;;;;5023234;28;20076;-87
2022/05/18 05:58:40;;;;;;;13.00;5.55;;;21.50;65.00;;;;;;5028605;28;20041;-87
2022/05/18 06:01:08;;;;;;;10.05;5.47;;;21.00;66.10;;;;;;5019260;28;20033;-89
2022/05/18 06:03:34;;;;;;;12.73;6.07;;;20.70;66.80;;;;;;5024378;28;20145;-83
2022/05/18 06:06:02;;;;;;;12.07;5.10;;;20.70;67.40;;;;;;5028420;28;20920;-80
2022/05/18 06:08:29;;;;;;;13.75;5.70;;;20.60;66.80;;;;;;5020559;28;20080;-83
2022/05/18 06:10:55;;;;;;;11.40;4.85;;;20.60;67.20;;;;;;5017320;28;20043;-81
2022/05/18 06:13:21;;;;;;;9.65;5.40;;;20.60;66.40;;;;;;5019579;28;20041;-81
2022/05/18 06:15:47;;;;;;;10.90;5.40;;;20.60;66.60;;;;;;5020708;28;20056;-83
2022/05/18 06:18:14;;;;;;;8.55;4.82;;;20.70;66.40;;;;;;5013306;28;20045;-81
2022/05/18 06:20:40;;;;;;;9.30;4.63;;;20.60;66.00;;;;;;5004552;28;20125;-84
2022/05/18 06:23:08;;;;;;;8.65;4.30;;;20.70;66.70;;;;;;5010769;28;20078;-81
2022/05/18 06:25:35;;;;;;;9.00;4.07;;;20.70;65.40;;;;;;5007008;28;20432;-84
2022/05/18 06:28:01;;;;;;;9.68;4.45;;;20.60;63.60;;;;;;5023531;28;20044;-82
2022/05/18 06:30:27;;;;;;;8.23;3.53;;;20.70;64.30;;;;;;5016702;28;20444;-81
2022/05/18 06:32:53;;;;;;;10.88;4.82;;;20.80;64.40;;;;;;5018056;28;20040;-82
2022/05/18 06:35:19;;;;;;;10.00;4.18;;;20.90;63.40;;;;;;5006743;28;20428;-81
2022/05/18 06:37:45;;;;;;;12.60;4.25;;;21.00;62.00;;;;;;5014259;28;20040;-84
2022/05/18 06:40:11;;;;;;;16.52;4.38;;;21.00;62.20;;;;;;5020875;28;20137;-83
2022/05/18 06:42:38;;;;;;;8.98;4.22;;;21.10;62.40;;;;;;5021764;28;20066;-81
2022/05/18 06:45:08;;;;;;;10.82;3.92;;;21.20;62.00;;;;;;5014270;28;20049;-83
2022/05/18 06:47:34;;;;;;;10.23;3.85;;;20.90;61.90;;;;;;5020240;28;20037;-82
2022/05/18 06:50:00;;;;;;;10.68;4.00;;;20.90;61.70;;;;;;5017624;28;20532;-82
2022/05/18 06:52:26;;;;;;;11.68;4.00;;;20.90;62.40;;;;;;5012955;28;20824;-83
2022/05/18 06:54:51;;;;;;;8.98;3.83;;;21.10;62.90;;;;;;5010538;28;20038;-82
2022/05/18 06:57:17;;;;;;;9.27;4.13;;;21.10;62.80;;;;;;5008770;28;20077;-82
2022/05/18 06:59:43;;;;;;;9.85;3.80;;;21.30;62.70;;;;;;5021433;28;20041;-81
2022/05/18 07:02:09;;;;;;;10.52;4.03;;;21.40;61.80;;;;;;5024389;28;20060;-81
2022/05/18 07:04:34;;;;;;;11.57;4.38;;;21.50;61.30;;;;;;5032400;28;20037;-82
2022/05/18 07:07:00;;;;;;;10.93;4.07;;;21.00;59.30;;;;;;5030471;28;20493;-81
2022/05/18 07:09:27;;;;;;;10.27;3.85;;;21.00;60.90;;;;;;5005914;28;20037;-84
2022/05/18 07:11:54;;;;;;;8.35;3.88;;;21.10;60.70;;;;;;5021342;28;20061;-83
2022/05/18 07:14:24;;;;;;;12.82;4.60;;;21.20;60.80;;;;;;5010436;28;20032;-82
2022/05/18 07:16:50;;;;;;;10.85;4.78;;;21.00;59.70;;;;;;5016117;28;20125;-83
2022/05/18 07:19:17;;;;;;;9.85;4.82;;;21.20;59.20;;;;;;5011519;28;20088;-82
2022/05/18 07:21:43;;;;;;;8.52;4.10;;;21.10;59.50;;;;;;5023650;28;20138;-82
2022/05/18 07:24:09;;;;;;;8.52;4.00;;;21.30;59.60;;;;;;5018141;28;20561;-83
2022/05/18 07:26:36;;;;;;;8.90;3.95;;;21.40;59.20;;;;;;5007728;28;20482;-83
2022/05/18 07:29:04;;;;;;;11.48;4.82;;;21.40;59.00;;;;;;5005437;28;20434;-81
2022/05/18 07:31:31;;;;;;;10.73;4.35;;;21.40;59.00;;;;;;5012705;28;20075;-82
2022/05/18 07:33:57;;;;;;;9.25;4.50;;;21.60;59.30;;;;;;5005923;28;20133;-83
2022/05/18 07:36:23;;;;;;;6.63;3.33;;;21.70;58.10;;;;;;5007622;28;20064;-82
2022/05/18 07:38:49;;;;;;;10.25;3.80;;;21.80;57.40;;;;;;5018746;28;20033;-83
2022/05/18 07:41:16;;;;;;;9.70;4.05;;;21.80;56.30;;;;;;5024510;28;20051;-81
2022/05/18 07:43:42;;;;;;;9.88;3.97;;;21.80;57.40;;;;;;5016944;28;20065;-81
2022/05/18 07:46:09;;;;;;;9.75;4.57;;;22.10;57.80;;;;;;5017936;28;20076;-80
2022/05/18 07:48:37;;;;;;;7.28;4.28;;;22.30;57.20;;;;;;5012513;28;20045;-82
2022/05/18 07:51:03;;;;;;;8.70;3.67;;;22.10;55.00;;;;;;5016200;28;20038;-81
2022/05/18 07:53:29;;;;;;;8.10;3.80;;;22.10;56.10;;;;;;5015124;28;20049;-83
2022/05/18 07:55:55;;;;;;;6.72;2.97;;;22.30;55.30;;;;;;5010031;28;20041;-84
2022/05/18 07:58:22;;;;;;;6.60;2.95;;;22.50;53.50;;;;;;5017333;28;20038;-83
2022/05/18 08:00:48;;;;;;;10.02;3.80;;;22.40;53.20;;;;;;5018821;28;20468;-83
2022/05/18 08:03:15;;;;;;;9.68;3.80;;;22.60;53.90;;;;;;5017466;28;20037;-83
2022/05/18 08:05:43;;;;;;;8.20;3.58;;;22.70;53.90;;;;;;5016753;28;20084;-82
2022/05/18 08:08:12;;;;;;;6.85;3.58;;;22.60;54.40;;;;;;5009156;28;20180;-84
2022/05/18 08:16:09;;;;;;;9.85;3.75;;;22.80;53.00;;;;;;5014274;28;20061;-82
2022/05/18 08:18:36;;;;;;;7.85;3.50;;;23.10;53.30;;;;;;5011701;28;20054;-83
2022/05/18 08:21:02;;;;;;;8.65;4.07;;;23.00;51.90;;;;;;5013057;28;20121;-82
2022/05/18 08:23:28;;;;;;;7.88;3.30;;;23.20;52.90;;;;;;5023103;28;20034;-83
2022/05/18 08:25:57;;;;;;;8.70;3.63;;;23.50;50.80;;;;;;5031240;28;20035;-84
2022/05/18 08:28:24;;;;;;;8.10;3.65;;;23.50;52.60;;;;;;5035783;28;20037;-84
2022/05/18 08:30:50;;;;;;;8.13;3.20;;;23.40;52.00;;;;;;5011747;28;20046;-81
2022/05/18 08:33:15;;;;;;;6.57;3.25;;;23.20;52.40;;;;;;5017764;28;20472;-83
2022/05/18 08:35:44;;;;;;;6.43;3.42;;;23.10;52.30;;;;;;5022893;28;20044;-82
2022/05/18 08:38:10;;;;;;;10.15;3.72;;;23.30;51.70;;;;;;5017474;28;20326;-85
2022/05/18 08:40:51;;;;;;;10.70;3.85;;;23.60;51.10;;;;;;5012406;28;20088;-82
2022/05/18 08:43:25;;;;;;;7.78;3.70;;;24.00;52.00;;;;;;5006226;28;20049;-83
2022/05/18 08:46:01;;;;;;;12.15;3.75;;;24.10;50.30;;;;;;5008276;28;20389;-83
2022/05/18 08:48:32;;;;;;;9.63;3.45;;;24.10;51.00;;;;;;5011038;28;20123;-83
2022/05/18 08:51:25;;;;;;;7.43;2.58;;;24.10;50.10;;;;;;5010028;28;20041;-83
2022/05/18 08:54:04;;;;;;;6.55;3.33;;;24.40;48.90;;;;;;5014557;28;20104;-83
2022/05/18 08:56:33;;;;;;;8.05;3.10;;;24.60;48.80;;;;;;5015237;28;20037;-83
2022/05/18 08:59:02;;;;;;;7.65;3.30;;;24.60;48.00;;;;;;5016653;28;20128;-82
2022/05/18 09:01:46;;;;;;;7.57;3.40;;;24.80;47.90;;;;;;5012465;28;20434;-82
2022/05/18 09:04:20;;;;;;;7.57;2.72;;;24.40;48.40;;;;;;5016659;28;20034;-87
2022/05/18 09:06:47;;;;;;;;;;;24.20;49.50;;;;;;5018957;28;20057;-88
2022/05/18 09:12:03;;;;;;;9.27;3.25;;;24.10;48.00;;;;;;5021831;28;20440;-86
2022/05/18 09:14:37;;;;;;;5.60;2.83;;;24.20;48.10;;;;;;5020375;28;20042;-86
2022/05/18 09:17:26;;;;;;;7.88;3.45;;;24.30;48.80;;;;;;5016447;28;20151;-86
2022/05/18 09:20:12;;;;;;;9.48;3.38;;;24.30;49.90;;;;;;5018405;28;20053;-86
2022/05/18 09:22:50;;;;;;;8.40;3.33;;;24.30;49.60;;;;;;5022569;28;20034;-85
2022/05/18 09:25:40;;;;;;;6.97;3.10;;;24.70;49.40;;;;;;5020958;28;20041;-86
2022/05/18 09:28:18;;;;;;;5.82;2.80;;;24.60;48.90;;;;;;5021732;28;20049;-86
2022/05/18 09:31:30;;;;;;;7.78;3.00;;;24.60;47.00;;;;;;5012943;28;20512;-85
2022/05/18 09:34:16;;;;;;;8.68;3.42;;;25.00;46.70;;;;;;4921904;28;20071;-86
2022/05/18 09:37:26;;;;;;;9.20;3.50;;;25.60;45.90;;;;;;5025214;28;20448;-85
2022/05/18 09:40:07;;;;;;;8.93;3.95;;;25.20;46.70;;;;;;5014105;28;20077;-85
2022/05/18 09:42:37;;;;;;;6.28;3.35;;;25.30;47.00;;;;;;5019290;28;21180;-85
2022/05/18 09:45:11;;;;;;;7.10;3.45;;;25.40;46.70;;;;;;5019200;28;20038;-88
2022/05/18 09:48:13;;;;;;;7.30;4.13;;;25.10;46.50;;;;;;5025402;28;20042;-86
2022/05/18 09:50:42;;;;;;;7.95;3.63;;;25.10;46.90;;;;;;5014766;28;20113;-85
2022/05/18 09:53:09;;;;;;;7.47;3.92;;;25.50;47.30;;;;;;5019300;28;20030;-85
2022/05/18 09:55:34;;;;;;;7.55;3.90;;;25.60;47.30;;;;;;5014775;28;20200;-86
2022/05/18 09:58:25;;;;;;;9.50;4.13;;;25.70;46.50;;;;;;5015950;28;20449;-86
2022/05/18 10:07:27;;;;;;;8.27;3.10;;;26.00;45.80;;;;;;5027152;28;20041;-86
2022/05/18 10:09:42;;;;;;;;;;;25.10;46.10;;;;;;5036298;28;20044;-84
2022/05/18 10:12:22;;;;;;;6.20;2.45;;;24.80;46.00;;;;;;5015703;28;19947;-86
2022/05/18 10:14:56;;;;;;;9.77;2.72;;;24.80;46.60;;;;;;5024933;28;20389;-86
2022/05/18 10:17:29;;;;;;;7.60;3.35;;;24.90;46.20;;;;;;5017039;28;20047;-85
2022/05/18 10:20:06;;;;;;;11.88;4.32;;;25.00;47.20;;;;;;5015483;28;20049;-86
2022/05/18 10:22:39;;;;;;;9.23;4.28;;;25.10;46.40;;;;;;5016666;28;20049;-84
2022/05/18 10:25:22;;;;;;;11.80;4.13;;;24.80;46.30;;;;;;5020989;28;20037;-84
2022/05/18 10:27:48;;;;;;;8.80;3.90;;;25.20;45.80;;;;;;5036715;28;20064;-85
2022/05/18 10:30:18;;;;;;;7.68;4.00;;;25.30;45.20;;;;;;5038914;28;20061;-85
2022/05/18 10:32:57;;;;;;;6.75;3.92;;;25.00;46.80;;;;;;5035250;28;20117;-86
2022/05/18 10:35:41;;;;;;;8.20;4.38;;;24.80;46.70;;;;;;5035738;28;20045;-86
2022/05/18 10:38:28;;;;;;;9.25;4.60;;;24.90;47.20;;;;;;5025550;28;20048;-85
2022/05/18 10:41:03;;;;;;;8.18;4.25;;;25.00;47.10;;;;;;5028321;28;20357;-87
2022/05/18 10:43:37;;;;;;;7.72;4.85;;;25.40;46.70;;;;;;5031804;28;20143;-86
2022/05/18 10:46:09;;;;;;;8.63;4.50;;;25.20;45.60;;;;;;5035197;28;20094;-86
2022/05/18 10:48:35;;;;;;;8.50;4.80;;;25.10;46.60;;;;;;5029347;28;20042;-86
2022/05/18 10:51:14;;;;;;;8.25;4.53;;;25.10;46.90;;;;;;5014143;28;20478;-86
2022/05/18 10:53:46;;;;;;;9.45;4.95;;;25.30;47.40;;;;;;5006491;28;20037;-85
2022/05/18 10:56:13;;;;;;;9.02;4.47;;;25.70;46.30;;;;;;5005667;28;20070;-87
2022/05/18 10:58:49;;;;;;;7.60;4.13;;;25.60;48.00;;;;;;5010279;28;20042;-85
2022/05/18 11:01:41;;;;;;;8.65;4.85;;;25.30;46.40;;;;;;5009040;28;20496;-87
2022/05/18 11:04:19;;;;;;;9.82;5.00;;;24.90;48.50;;;;;;5009185;28;20087;-86
2022/05/18 11:06:45;;;;;;;8.85;4.40;;;24.90;48.80;;;;;;5024898;28;20572;-86
2022/05/18 11:09:29;;;;;;;10.52;5.43;;;25.20;48.60;;;;;;5009953;28;20037;-86
2022/05/18 11:12:25;;;;;;;9.27;5.43;;;25.30;48.20;;;;;;5008382;28;20137;-87
2022/05/18 11:14:58;;;;;;;9.00;4.47;;;25.60;47.20;;;;;;5010131;28;20034;-87
2022/05/18 11:18:08;;;;;;;9.15;5.07;;;26.10;46.90;;;;;;5011184;28;20496;-87
2022/05/18 11:21:12;;;;;;;11.95;5.60;;;26.30;45.80;;;;;;4974476;28;20049;-87
2022/05/18 11:23:48;;;;;;;10.70;5.75;;;26.40;45.40;;;;;;5005640;28;20108;-85
2022/05/18 11:26:51;;;;;;;10.65;5.25;;;26.40;44.40;;;;;;5007089;28;20550;-86
2022/05/18 11:29:26;;;;;;;10.52;4.97;;;26.70;45.20;;;;;;5003806;28;20258;-85
2022/05/18 11:32:22;;;;;;;9.13;6.00;;;27.20;44.30;;;;;;5009976;28;20290;-84
2022/05/18 11:35:10;;;;;;;8.57;5.75;;;27.30;43.50;;;;;;5013819;28;20065;-85
2022/05/18 11:38:12;;;;;;;12.48;6.20;;;26.70;45.30;;;;;;5010434;28;20129;-86
2022/05/18 11:40:59;;;;;;;8.27;5.65;;;26.90;45.70;;;;;;5032609;28;20121;-87
2022/05/18 11:43:36;;;;;;;8.98;5.80;;;27.00;44.70;;;;;;5018451;28;20045;-85
2022/05/18 11:46:16;;;;;;;9.05;4.95;;;26.80;46.20;;;;;;5014611;28;20459;-83
2022/05/18 11:49:01;;;;;;;9.27;5.60;;;27.10;44.60;;;;;;5013237;28;20449;-84
2022/05/18 11:51:46;;;;;;;8.43;5.20;;;27.60;44.20;;;;;;5009340;28;20086;-84
2022/05/18 11:54:34;;;;;;;9.70;5.65;;;27.80;42.70;;;;;;5030436;28;20072;-85
2022/05/18 11:57:03;;;;;;;8.60;5.60;;;27.60;43.70;;;;;;5008904;28;20485;-84
2022/05/18 12:00:10;;;;;;;10.95;6.75;;;27.40;43.40;;;;;;5013524;28;20515;-84
2022/05/18 12:02:45;;;;;;;9.23;5.90;;;27.00;44.50;;;;;;5013810;28;20034;-84
2022/05/18 12:05:53;;;;;;;8.80;5.97;;;26.80;44.90;;;;;;5018000;28;20034;-84
2022/05/18 12:08:48;;;;;;;13.13;6.70;;;26.80;45.00;;;;;;5017674;28;20560;-85
2022/05/18 12:11:25;;;;;;;10.70;6.40;;;27.00;44.70;;;;;;5006832;28;20042;-85
2022/05/18 12:13:54;;;;;;;12.82;6.03;;;26.90;45.30;;;;;;5012926;28;20037;-85
2022/05/18 12:16:26;;;;;;;10.98;5.93;;;26.80;44.60;;;;;;5020554;28;20049;-87
2022/05/18 12:19:46;;;;;;;12.02;6.80;;;26.60;45.50;;;;;;5013942;28;20040;-87
2022/05/18 12:22:16;;;;;;;8.85;5.85;;;26.10;45.90;;;;;;4943725;28;20035;-86
2022/05/18 12:24:46;;;;;;;10.13;6.10;;;26.50;46.20;;;;;;4958818;28;20046;-87
2022/05/18 12:27:16;;;;;;;11.15;6.25;;;26.50;44.50;;;;;;4996429;28;20571;-86
2022/05/18 12:29:44;;;;;;;9.82;5.53;;;26.30;45.00;;;;;;5015747;28;20037;-87
2022/05/18 12:32:12;;;;;;;8.82;5.05;;;26.50;45.50;;;;;;5023135;28;20561;-84
2022/05/18 12:34:39;;;;;;;9.82;5.55;;;26.90;44.90;;;;;;5014316;28;20042;-85
2022/05/18 12:37:14;;;;;;;12.65;6.05;;;27.20;43.50;;;;;;5018840;28;20041;-85
2022/05/18 12:40:10;;;;;;;9.40;5.78;;;27.00;43.80;;;;;;5006055;28;20799;-85
2022/05/18 12:42:41;;;;;;;11.20;5.97;;;27.00;43.60;;;;;;5008738;28;20044;-85
2022/05/18 12:45:21;;;;;;;10.30;6.57;;;27.20;43.90;;;;;;5009745;28;20711;-86
2022/05/18 12:47:52;;;;;;;9.68;6.15;;;27.30;43.90;;;;;;5003094;28;20412;-84
2022/05/18 12:50:39;;;;;;;9.82;3.95;;;27.50;43.70;;;;;;5010947;28;20034;-84
2022/05/18 12:53:21;;;;;;;6.70;2.95;;;27.60;43.50;;;;;;5002138;28;20049;-85
2022/05/18 12:55:56;;;;;;;9.30;3.95;;;28.30;39.60;;;;;;5010545;28;20037;-84
2022/05/18 12:58:30;;;;;;;6.97;3.20;;;28.80;39.30;;;;;;5012191;28;20496;-84
2022/05/18 13:01:00;;;;;;;11.85;4.45;;;29.10;38.20;;;;;;5022507;28;20164;-84
2022/05/18 13:03:45;;;;;;;8.55;4.15;;;29.30;38.70;;;;;;5008090;28;20034;-83
2022/05/18 13:06:33;;;;;;;8.15;4.53;;;28.90;38.90;;;;;;5018802;28;20037;-84
2022/05/18 13:09:17;;;;;;;6.88;3.70;;;28.90;39.30;;;;;;5009949;28;20497;-84
2022/05/18 13:11:43;;;;;;;8.48;3.80;;;29.00;38.30;;;;;;5013657;28;20128;-84
2022/05/18 13:14:23;;;;;;;8.70;3.63;;;29.20;37.90;;;;;;5019381;28;20133;-84
2022/05/18 13:16:48;;;;;;;6.53;3.90;;;29.10;38.10;;;;;;5036783;28;20049;-83
2022/05/18 13:19:14;;;;;;;6.97;3.30;;;29.00;37.40;;;;;;5011153;28;20046;-84
2022/05/18 13:22:15;;;;;;;7.43;3.30;;;29.10;37.90;;;;;;5021646;28;20127;-85
2022/05/18 13:24:59;;;;;;;9.27;3.40;;;29.30;37.20;;;;;;5015766;28;20048;-84